Time;durP1;ratioP1;P1;durP2;ratioP2;P2;SDS_P1;SDS_P2;PMS_P1;PMS_P2;Temp;Humidity;BMP_temperature;BMP_pressure;BME280_temperature;BME280_humidity;BME280_pressure;Samples;Min_cycle;Max_cycle;Signal;HPM_P1;HPM_P2
2023/07/19 00:01:11;;;;;;;9.20;3.10;;;;;;;22.98;79.91;98428.78;4485790;32;20149;-66
2023/07/19 00:03:39;;;;;;;8.13;2.90;;;;;;;22.96;80.44;98422.81;4485768;32;20092;-67
2023/07/19 00:06:06;;;;;;;9.45;2.80;;;;;;;22.94;80.87;98421.44;4485573;32;20165;-67
2023/07/19 00:08:34;;;;;;;9.52;3.30;;;;;;;22.86;81.66;98409.19;4485607;32;20122;-66
2023/07/19 00:11:01;;;;;;;7.45;3.35;;;;;;;22.80;82.19;98397.56;4485711;31;20093;-67
2023/07/19 00:13:29;;;;;;;10.85;3.80;;;;;;;22.72;82.74;98389.84;4485483;32;20096;-66
2023/07/19 00:15:56;;;;;;;7.65;3.62;;;;;;;22.64;83.14;98382.16;4485477;31;20584;-67
2023/07/19 00:18:23;;;;;;;10.70;3.58;;;;;;;22.59;83.49;98390.00;4485551;31;20149;-67
2023/07/19 00:20:51;;;;;;;8.77;3.55;;;;;;;22.52;84.10;98387.44;4485504;31;20623;-66
2023/07/19 00:23:18;;;;;;;15.07;3.53;;;;;;;22.42;84.94;98382.63;4485613;31;20438;-66
2023/07/19 00:25:46;;;;;;;10.65;4.10;;;;;;;22.23;86.08;98375.66;4485361;31;20123;-67
2023/07/19 00:28:13;;;;;;;11.82;3.50;;;;;;;22.19;86.52;98363.78;4485529;31;20161;-67
2023/07/19 00:30:41;;;;;;;8.82;3.70;;;;;;;22.19;86.79;98343.25;4485372;31;20088;-67
2023/07/19 00:33:08;;;;;;;11.52;4.10;;;;;;;22.12;87.58;98348.66;4485614;31;20134;-67
2023/07/19 00:35:43;;;;;;;10.07;3.58;;;;;;;21.95;88.00;98358.28;4485586;31;20095;-66
2023/07/19 00:38:14;;;;;;;8.68;3.47;;;;;;;21.89;88.43;98367.16;4485620;31;20089;-67
2023/07/19 00:40:42;;;;;;;12.52;3.37;;;;;;;21.88;88.54;98366.34;4484374;31;20097;-66
2023/07/19 00:43:10;;;;;;;10.20;4.37;;;;;;;21.80;88.82;98355.94;4485358;31;20495;-67
2023/07/19 00:45:44;;;;;;;13.13;3.72;;;;;;;21.77;89.02;98353.72;4485554;32;20119;-67
2023/07/19 00:48:15;;;;;;;13.45;3.53;;;;;;;21.78;88.97;98344.69;4485668;32;20088;-66
2023/07/19 00:50:43;;;;;;;10.68;3.47;;;;;;;21.78;88.82;98342.03;4485227;31;20088;-66
2023/07/19 00:53:11;;;;;;;8.57;3.35;;;;;;;21.74;88.76;98349.66;4484004;32;20097;-66
2023/07/19 00:55:39;;;;;;;12.57;3.83;;;;;;;21.84;88.42;98338.47;4485543;31;20120;-66
2023/07/19 00:58:08;;;;;;;9.43;2.87;;;;;;;21.83;88.49;98330.72;4485346;31;20152;-66
2023/07/19 01:00:36;;;;;;;6.37;3.20;;;;;;;21.87;88.22;98329.22;4484108;32;20120;-66
2023/07/19 01:03:04;;;;;;;8.95;3.55;;;;;;;21.90;88.00;98329.59;4485461;32;20481;-66
2023/07/19 01:05:32;;;;;;;8.73;3.22;;;;;;;21.97;87.52;98317.00;4484101;32;20123;-67
2023/07/19 01:08:00;;;;;;;6.97;2.58;;;;;;;22.03;87.33;98325.16;4485206;31;20111;-67
2023/07/19 01:10:29;;;;;;;6.85;3.15;;;;;;;22.07;87.25;98335.16;4484221;32;20122;-66
2023/07/19 01:13:17;;;;;;;6.87;2.62;;;;;;;22.11;86.81;98344.34;4485078;31;20518;-66
2023/07/19 01:15:44;;;;;;;9.98;2.90;;;;;;;22.13;86.94;98339.63;4485277;31;20126;-67
2023/07/19 01:18:13;;;;;;;6.87;2.28;;;;;;;22.15;86.76;98345.53;4485120;31;20092;-66
2023/07/19 01:20:41;;;;;;;5.30;3.05;;;;;;;22.03;87.65;98344.66;4485282;31;20096;-66
2023/07/19 01:23:08;;;;;;;6.03;2.62;;;;;;;22.02;88.00;98335.03;4485103;31;20123;-66
2023/07/19 01:25:36;;;;;;;7.40;2.97;;;;;;;22.00;88.39;98334.44;4483978;32;20481;-66
2023/07/19 01:28:04;;;;;;;5.57;2.47;;;;;;;21.99;88.62;98322.13;4485244;31;20179;-66
2023/07/19 01:30:31;;;;;;;12.00;3.08;;;;;;;22.07;87.99;98321.00;4485208;31;20097;-66
2023/07/19 01:32:58;;;;;;;9.35;2.53;;;;;;;22.04;88.23;98322.25;4485133;32;20114;-67
2023/07/19 01:35:26;;;;;;;11.12;2.75;;;;;;;22.04;88.11;98314.25;4485156;32;20118;-66
2023/07/19 01:37:53;;;;;;;10.85;2.42;;;;;;;21.97;88.36;98309.00;4484916;31;20504;-66
2023/07/19 01:40:21;;;;;;;5.43;2.70;;;;;;;21.94;88.39;98314.78;4485226;31;20153;-67
2023/07/19 01:42:50;;;;;;;4.53;2.33;;;;;;;21.89;88.73;98305.81;4484926;31;20450;-66
2023/07/19 01:45:18;;;;;;;7.18;2.40;;;;;;;21.80;89.20;98303.47;4485399;32;20427;-66
2023/07/19 01:47:45;;;;;;;5.95;2.70;;;;;;;21.74;89.65;98309.69;4484924;32;20498;-66
2023/07/19 01:50:13;;;;;;;7.00;3.22;;;;;;;21.70;89.67;98305.81;4484935;32;20100;-66
2023/07/19 01:52:41;;;;;;;5.00;2.45;;;;;;;21.72;89.69;98310.94;4484658;31;20088;-66
2023/07/19 01:55:10;;;;;;;9.50;2.55;;;;;;;21.72;89.61;98311.72;4485038;32;20135;-66
2023/07/19 01:57:37;;;;;;;6.68;2.53;;;;;;;21.67;89.84;98308.91;4485160;32;20110;-66
2023/07/19 02:00:06;;;;;;;6.45;2.50;;;;;;;21.62;90.19;98316.78;4485276;32;20151;-66
2023/07/19 02:02:42;;;;;;;8.68;2.37;;;;;;;21.73;89.74;98324.03;4484025;32;20076;-67
2023/07/19 02:05:10;;;;;;;5.65;2.75;;;;;;;21.78;89.57;98328.69;4485224;31;20513;-66
2023/07/19 02:07:37;;;;;;;4.97;2.83;;;;;;;21.80;89.64;98318.63;4484785;32;20092;-66
2023/07/19 02:10:06;;;;;;;8.23;2.83;;;;;;;21.82;89.71;98319.22;4484776;31;20126;-66
2023/07/19 02:12:33;;;;;;;6.15;3.03;;;;;;;21.80;89.86;98319.47;4484686;31;20088;-66
2023/07/19 02:15:01;;;;;;;5.25;2.83;;;;;;;21.73;90.37;98332.03;4484727;32;20087;-66
2023/07/19 02:17:29;;;;;;;9.40;2.83;;;;;;;21.72;90.57;98338.38;4484873;32;20205;-66
2023/07/19 02:19:58;;;;;;;10.43;3.20;;;;;;;21.61;91.20;98336.47;4484543;31;20156;-66
2023/07/19 02:22:26;;;;;;;11.12;3.05;;;;;;;21.60;91.66;98342.81;4484631;31;20156;-66
2023/07/19 02:24:53;;;;;;;6.62;2.87;;;;;;;21.64;91.64;98346.69;4484445;31;20153;-66
2023/07/19 02:27:22;;;;;;;6.82;2.72;;;;;;;21.57;92.13;98351.25;4484531;31;20155;-66
2023/07/19 02:29:50;;;;;;;13.70;3.28;;;;;;;21.40;93.32;98351.75;4484415;31;20448;-66
2023/07/19 02:32:18;;;;;;;8.43;2.90;;;;;;;21.38;93.89;98347.72;4484550;31;20096;-66
2023/07/19 02:34:46;;;;;;;8.35;3.80;;;;;;;21.31;94.33;98337.09;4484715;31;20122;-66
2023/07/19 02:37:14;;;;;;;7.28;2.87;;;;;;;21.15;95.26;98335.78;4484364;31;20111;-66
2023/07/19 02:39:43;;;;;;;8.27;2.60;;;;;;;21.16;95.38;98339.25;4484336;32;20134;-66
2023/07/19 02:42:11;;;;;;;7.90;2.85;;;;;;;21.23;94.80;98334.69;4484513;31;20161;-66
2023/07/19 02:44:38;;;;;;;11.10;3.05;;;;;;;21.19;94.85;98320.97;4484294;31;20096;-66
2023/07/19 02:47:08;;;;;;;8.45;2.95;;;;;;;21.22;94.64;98322.41;4484434;31;20134;-66
2023/07/19 02:49:36;;;;;;;7.95;2.90;;;;;;;21.20;94.66;98322.63;4484104;31;20152;-66
2023/07/19 02:52:08;;;;;;;9.68;2.62;;;;;;;21.16;94.80;98328.59;4484194;31;20148;-66
2023/07/19 02:54:36;;;;;;;11.77;2.90;;;;;;;21.16;95.15;98328.59;4484191;31;20599;-66
2023/07/19 02:57:04;;;;;;;6.05;2.83;;;;;;;21.12;95.42;98322.06;4484142;31;20144;-66
2023/07/19 02:59:31;;;;;;;8.25;2.70;;;;;;;21.10;95.69;98316.97;4484098;32;20542;-66
2023/07/19 03:01:59;;;;;;;5.68;2.70;;;;;;;21.12;95.74;98308.75;4484099;32;20397;-66
2023/07/19 03:04:26;;;;;;;7.50;2.53;;;;;;;21.06;95.96;98305.94;4485533;31;20131;-66
2023/07/19 03:06:54;;;;;;;7.78;3.10;;;;;;;21.03;96.19;98314.34;4486303;32;20119;-66
2023/07/19 03:09:21;;;;;;;9.02;3.22;;;;;;;21.04;96.24;98310.63;4486334;31;20430;-66
2023/07/19 03:11:51;;;;;;;7.53;2.75;;;;;;;21.00;96.63;98304.13;4486137;32;20153;-67
2023/07/19 03:14:19;;;;;;;6.55;2.97;;;;;;;20.94;97.32;98322.81;4486167;31;20454;-67
2023/07/19 03:16:46;;;;;;;9.20;4.00;;;;;;;20.90;97.93;98319.75;4486059;31;20530;-66
2023/07/19 03:19:14;;;;;;;6.12;2.50;;;;;;;20.87;98.32;98325.53;4486244;32;20435;-67
2023/07/19 03:21:41;;;;;;;4.47;2.33;;;;;;;20.91;98.15;98321.41;4485936;31;20132;-66
2023/07/19 03:24:09;;;;;;;8.20;2.75;;;;;;;20.87;98.51;98320.19;4486179;31;20556;-66
2023/07/19 03:26:37;;;;;;;6.65;2.90;;;;;;;20.90;98.47;98325.09;4486059;31;20100;-66
2023/07/19 03:29:04;;;;;;;11.60;3.20;;;;;;;20.91;98.60;98324.87;4485915;31;20093;-66
2023/07/19 03:31:35;;;;;;;6.35;2.60;;;;;;;20.98;98.31;98311.50;4486002;31;20136;-67
2023/07/19 03:34:02;;;;;;;6.45;2.53;;;;;;;21.00;98.12;98313.94;4485786;32;20080;-66
2023/07/19 03:36:30;;;;;;;9.52;2.70;;;;;;;21.04;98.18;98315.97;4486131;31;20099;-66
2023/07/19 03:38:57;;;;;;;11.43;2.65;;;;;;;21.09;98.30;98307.34;4486116;32;20088;-66
2023/07/19 03:41:24;;;;;;;8.77;2.87;;;;;;;21.07;98.40;98307.56;4485800;32;20090;-66
2023/07/19 03:43:51;;;;;;;11.63;2.92;;;;;;;21.15;98.15;98306.47;4485811;31;20446;-66
2023/07/19 03:46:18;;;;;;;5.18;2.60;;;;;;;21.13;98.29;98310.38;4485745;31;20105;-66
2023/07/19 03:48:46;;;;;;;7.62;2.60;;;;;;;21.18;98.05;98310.53;4486267;31;20097;-66
2023/07/19 03:51:14;;;;;;;7.15;2.85;;;;;;;21.23;97.62;98318.72;4485789;32;20096;-66
2023/07/19 03:53:42;;;;;;;7.65;2.50;;;;;;;21.27;97.29;98312.72;4486004;32;20441;-66
2023/07/19 03:56:10;;;;;;;9.90;2.80;;;;;;;21.32;97.05;98317.41;4486036;31;20493;-67
2023/07/19 03:58:39;;;;;;;5.45;2.40;;;;;;;21.38;96.62;98305.88;4485713;31;20069;-66
2023/07/19 04:01:06;;;;;;;3.58;2.33;;;;;;;21.39;96.44;98312.00;4485847;31;20164;-67
2023/07/19 04:03:34;;;;;;;6.53;2.55;;;;;;;21.51;95.90;98309.47;4485481;31;20165;-66
2023/07/19 04:06:01;;;;;;;6.78;2.53;;;;;;;21.55;95.81;98321.34;4485070;31;20100;-67
2023/07/19 04:08:28;;;;;;;6.03;2.62;;;;;;;21.73;95.26;98315.22;4484737;31;20108;-67
2023/07/19 04:10:56;;;;;;;10.15;3.20;;;;;;;21.96;94.41;98310.03;4485364;31;20093;-67
2023/07/19 04:13:25;;;;;;;4.30;2.30;;;;;;;22.11;93.45;98320.34;4485288;31;20131;-67
2023/07/19 04:15:53;;;;;;;12.57;3.28;;;;;;;22.22;93.37;98318.78;4485635;32;20530;-67
2023/07/19 04:18:21;;;;;;;10.93;3.03;;;;;;;22.33;92.29;98327.91;4485760;31;20088;-67
2023/07/19 04:20:57;;;;;;;7.90;2.92;;;;;;;22.36;91.96;98332.78;4485415;31;20100;-67
2023/07/19 04:23:26;;;;;;;5.53;2.30;;;;;;;22.53;90.77;98340.19;4483443;32;20116;-66
2023/07/19 04:25:53;;;;;;;6.05;2.80;;;;;;;22.56;90.46;98331.72;4483734;31;20496;-67
2023/07/19 04:28:20;;;;;;;10.93;3.65;;;;;;;22.68;90.03;98333.41;4484417;31;20125;-67
2023/07/19 04:30:48;;;;;;;8.05;2.95;;;;;;;22.74;89.62;98336.22;4483836;32;20119;-67
2023/07/19 04:33:19;;;;;;;11.73;3.30;;;;;;;22.93;88.71;98345.81;4484876;31;20104;-67
2023/07/19 04:35:47;;;;;;;8.43;2.50;;;;;;;23.18;87.83;98345.69;4485610;31;20156;-67
2023/07/19 04:38:16;;;;;;;8.48;3.47;;;;;;;23.23;87.14;98357.53;4484363;31;20114;-67
2023/07/19 04:40:43;;;;;;;8.60;2.70;;;;;;;23.33;86.71;98352.44;4481803;31;20100;-67
2023/07/19 04:43:13;;;;;;;5.12;2.60;;;;;;;23.45;86.25;98355.94;4484457;31;20092;-67
2023/07/19 04:45:43;;;;;;;7.35;2.95;;;;;;;23.41;86.11;98349.44;4485504;31;20119;-67
2023/07/19 04:48:11;;;;;;;9.05;2.78;;;;;;;23.36;86.04;98354.63;4485614;31;20097;-67
2023/07/19 04:50:39;;;;;;;8.82;3.08;;;;;;;23.49;85.28;98346.41;4484708;32;20145;-67
2023/07/19 04:53:07;;;;;;;6.80;2.90;;;;;;;23.66;84.78;98346.53;4484823;32;20126;-67
2023/07/19 04:55:34;;;;;;;8.27;2.87;;;;;;;23.77;84.00;98352.09;4482434;31;20096;-67
2023/07/19 04:58:02;;;;;;;8.05;2.90;;;;;;;23.93;83.16;98354.09;4481604;31;20088;-67
2023/07/19 05:00:30;;;;;;;8.90;3.15;;;;;;;24.13;82.80;98345.69;4482461;32;20166;-67
2023/07/19 05:02:57;;;;;;;11.77;3.05;;;;;;;24.13;82.33;98355.59;4483905;31;20593;-67
2023/07/19 05:05:25;;;;;;;8.10;3.10;;;;;;;24.38;80.80;98350.78;4483799;32;20187;-67
2023/07/19 05:07:53;;;;;;;6.28;2.28;;;;;;;24.57;79.79;98342.56;4485124;31;20106;-67
2023/07/19 05:10:22;;;;;;;7.07;2.65;;;;;;;24.70;79.69;98342.31;4490056;31;20131;-67
2023/07/19 05:12:52;;;;;;;8.48;3.20;;;;;;;24.90;78.13;98349.88;4497355;31;20122;-67
2023/07/19 05:15:19;;;;;;;6.95;2.25;;;;;;;24.86;77.67;98354.13;4490896;31;20108;-67
2023/07/19 05:17:47;;;;;;;5.32;2.67;;;;;;;24.87;76.88;98334.28;4485204;31;20108;-67
2023/07/19 05:20:15;;;;;;;8.38;2.55;;;;;;;24.68;77.47;98335.56;4485959;31;20138;-67
2023/07/19 05:22:43;;;;;;;7.78;4.40;;;;;;;24.92;76.80;98330.91;4484772;31;20096;-67
2023/07/19 05:25:11;;;;;;;4.90;2.40;;;;;;;24.82;77.72;98334.22;4491757;31;20151;-67
2023/07/19 05:27:38;;;;;;;8.57;3.35;;;;;;;25.22;76.08;98330.59;4483487;31;20123;-67
2023/07/19 05:30:06;;;;;;;14.93;3.90;;;;;;;25.39;74.70;98340.53;4484914;31;20171;-67
2023/07/19 05:32:35;;;;;;;8.07;3.22;;;;;;;25.35;74.89;98339.44;4491797;31;20118;-67
2023/07/19 05:35:04;;;;;;;8.00;3.42;;;;;;;25.48;75.05;98334.53;4499570;31;20439;-67
2023/07/19 05:37:32;;;;;;;6.05;3.10;;;;;;;25.89;73.16;98345.06;4499960;31;20148;-67
2023/07/19 05:39:59;;;;;;;6.95;2.60;;;;;;;25.69;74.05;98342.88;4498211;31;20122;-67
2023/07/19 05:42:27;;;;;;;7.05;2.78;;;;;;;25.48;75.12;98344.44;4500079;31;20167;-67
2023/07/19 05:44:55;;;;;;;12.18;3.28;;;;;;;25.24;76.60;98360.69;4500732;31;20099;-67
2023/07/19 05:47:24;;;;;;;7.78;2.83;;;;;;;25.22;77.47;98357.41;4498698;31;20600;-67
2023/07/19 05:49:51;;;;;;;10.77;3.12;;;;;;;25.17;77.46;98367.25;4487875;31;20107;-67
2023/07/19 05:52:20;;;;;;;6.25;2.62;;;;;;;25.46;76.77;98374.19;4482536;31;20115;-67
2023/07/19 05:54:47;;;;;;;5.43;3.28;;;;;;;25.66;75.91;98368.34;4481074;31;20116;-68
2023/07/19 05:57:17;;;;;;;8.02;3.92;;;;;;;25.74;75.34;98368.97;4481818;32;20538;-67
2023/07/19 05:59:45;;;;;;;7.20;3.08;;;;;;;25.67;74.83;98375.31;4481823;31;20122;-68
2023/07/19 06:02:12;;;;;;;8.80;3.10;;;;;;;25.95;nan;98378.94;4484324;31;20115;-67
2023/07/19 06:04:42;;;;;;;10.48;3.50;;;;;;;26.22;72.81;98375.56;4492993;31;20096;-67
2023/07/19 06:07:09;;;;;;;9.52;2.33;;;;;;;26.53;71.03;98379.44;4498550;31;20087;-67
2023/07/19 06:09:36;;;;;;;8.38;3.03;;;;;;;26.79;69.26;98384.34;4499480;31;20152;-67
2023/07/19 06:12:08;;;;;;;7.78;4.60;;;;;;;26.93;68.28;98382.84;4479198;31;20092;-67
2023/07/19 06:14:35;;;;;;;7.15;3.58;;;;;;;27.49;67.10;98387.16;4480374;32;20482;-67
2023/07/19 06:17:02;;;;;;;7.80;3.78;;;;;;;27.49;65.85;98384.47;4479809;31;20100;-67
2023/07/19 06:19:31;;;;;;;4.72;2.70;;;;;;;27.26;67.04;98389.09;4480057;31;20104;-67
2023/07/19 06:21:59;;;;;;;7.57;3.20;;;;;;;27.14;68.22;98385.75;4478692;31;20160;-67
2023/07/19 06:24:27;;;;;;;10.48;3.50;;;;;;;26.91;69.18;98385.00;4479191;31;20396;-67
2023/07/19 06:26:55;;;;;;;10.68;4.28;;;;;;;27.01;69.05;98385.09;4480245;31;20551;-67
2023/07/19 06:29:23;;;;;;;9.23;3.97;;;;;;;27.09;69.27;98387.31;4478197;31;20108;-68
2023/07/19 06:31:50;;;;;;;15.60;4.35;;;;;;;27.53;66.87;98374.81;4479300;31;20096;-67
2023/07/19 06:34:18;;;;;;;9.60;4.50;;;;;;;27.54;67.10;98377.25;4479420;31;20099;-67
2023/07/19 06:36:46;;;;;;;9.90;3.90;;;;;;;27.37;67.96;98366.59;4479462;31;20093;-67
2023/07/19 06:39:14;;;;;;;11.12;3.83;;;;;;;27.62;66.78;98359.81;4476451;31;20156;-67
2023/07/19 06:41:45;;;;;;;6.65;3.30;;;;;;;27.62;66.43;98360.63;4479450;31;20140;-67
2023/07/19 06:44:12;;;;;;;9.13;3.95;;;;;;;27.79;66.18;98356.94;4480795;31;20100;-68
2023/07/19 06:46:40;;;;;;;8.52;3.40;;;;;;;28.08;64.77;98356.59;4481440;31;20450;-67
2023/07/19 06:49:07;;;;;;;6.10;3.97;;;;;;;27.91;65.34;98356.75;4475148;31;163949;-67
2023/07/19 06:51:35;;;;;;;8.38;3.60;;;;;;;27.70;66.23;98367.38;4481653;31;20119;-67
2023/07/19 06:54:03;;;;;;;12.27;3.65;;;;;;;27.53;66.86;98372.13;4481590;31;20474;-67
2023/07/19 06:56:41;;;;;;;5.43;3.60;;;;;;;27.86;65.71;98364.78;4480555;32;20577;-67
2023/07/19 06:59:10;;;;;;;7.80;3.40;;;;;;;28.20;65.46;98354.50;4480924;31;20575;-68
2023/07/19 07:01:38;;;;;;;7.78;3.85;;;;;;;28.33;63.43;98348.63;4480771;31;20189;-67
2023/07/19 07:04:09;;;;;;;8.38;3.45;;;;;;;28.49;62.61;98351.38;4484116;31;20103;-67
2023/07/19 07:06:37;;;;;;;8.63;3.20;;;;;;;28.53;61.92;98357.06;4482913;31;20175;-67
2023/07/19 07:09:07;;;;;;;6.10;3.30;;;;;;;28.70;63.40;98357.66;4478263;31;20220;-68
2023/07/19 07:11:34;;;;;;;6.37;3.80;;;;;;;28.65;62.63;98350.38;4477868;31;21733;-68
2023/07/19 07:14:02;;;;;;;6.30;3.45;;;;;;;29.10;61.05;98356.13;4481968;31;20084;-68
2023/07/19 07:16:29;;;;;;;8.80;3.00;;;;;;;29.25;59.13;98346.44;4480232;31;20104;-67
2023/07/19 07:18:57;;;;;;;9.38;3.40;;;;;;;29.08;59.47;98357.47;4480573;31;20131;-67
2023/07/19 07:21:25;;;;;;;6.65;3.30;;;;;;;28.77;59.17;98360.13;4479428;31;20100;-67
2023/07/19 07:23:54;;;;;;;5.40;3.33;;;;;;;28.56;58.33;98356.53;4480047;31;20458;-67
2023/07/19 07:26:21;;;;;;;8.85;3.60;;;;;;;28.61;59.07;98364.66;4479075;31;20183;-67
2023/07/19 07:28:49;;;;;;;11.35;3.28;;;;;;;28.42;59.23;98362.41;4480609;31;20096;-67
2023/07/19 07:31:17;;;;;;;8.70;3.47;;;;;;;28.19;61.15;98360.16;4481106;31;20528;-67
2023/07/19 07:33:44;;;;;;;6.60;3.08;;;;;;;28.47;61.23;98358.94;4477253;31;20108;-67
2023/07/19 07:36:12;;;;;;;6.55;3.30;;;;;;;28.39;61.02;98364.81;4478541;31;20126;-67
2023/07/19 07:38:41;;;;;;;8.93;3.58;;;;;;;28.50;62.20;98361.09;4476690;32;20100;-67
2023/07/19 07:41:11;;;;;;;6.85;3.00;;;;;;;28.35;62.11;98361.03;4478106;32;20112;-67
2023/07/19 07:43:40;;;;;;;4.47;3.40;;;;;;;28.67;61.07;98368.97;4470816;32;20573;-67
2023/07/19 07:46:07;;;;;;;10.20;4.35;;;;;;;28.99;60.91;98365.28;4478226;31;20109;-67
2023/07/19 07:48:34;;;;;;;8.85;3.55;;;;;;;28.88;60.61;98372.53;4478667;31;20101;-67
2023/07/19 07:51:01;;;;;;;7.93;3.05;;;;;;;28.78;60.42;98373.34;4481061;31;20426;-67
2023/07/19 07:53:29;;;;;;;6.47;3.25;;;;;;;28.81;60.93;98370.09;4481876;32;20621;-67
2023/07/19 07:55:58;;;;;;;14.60;3.83;;;;;;;28.60;61.15;98368.41;4480863;31;20508;-67
2023/07/19 07:58:25;;;;;;;5.70;3.50;;;;;;;28.43;61.67;98372.09;4480371;31;20478;-67
2023/07/19 08:00:54;;;;;;;6.55;3.42;;;;;;;28.35;62.12;98372.63;4478283;31;20092;-67
2023/07/19 08:03:23;;;;;;;6.37;3.62;;;;;;;28.07;62.93;98366.56;4482046;32;20548;-67
2023/07/19 08:05:51;;;;;;;9.50;3.60;;;;;;;28.15;63.94;98357.19;4481262;32;20472;-67
2023/07/19 08:08:18;;;;;;;9.45;3.95;;;;;;;28.24;63.90;98352.13;4480755;31;20097;-67
2023/07/19 08:10:48;;;;;;;7.93;4.07;;;;;;;28.20;64.71;98351.00;4481372;31;20104;-67
2023/07/19 08:13:16;;;;;;;9.93;3.25;;;;;;;28.02;64.24;98353.06;4480187;32;20153;-67
2023/07/19 08:15:43;;;;;;;7.85;3.97;;;;;;;28.24;63.01;98349.41;4480425;32;20096;-67
2023/07/19 08:18:12;;;;;;;12.18;4.65;;;;;;;28.46;62.08;98336.56;4480455;31;20508;-67
2023/07/19 08:20:40;;;;;;;6.00;3.40;;;;;;;28.45;62.03;98334.94;4482133;31;20491;-67
2023/07/19 08:23:08;;;;;;;6.47;3.47;;;;;;;28.45;61.39;98334.94;4483163;31;20104;-67
2023/07/19 08:25:36;;;;;;;7.60;3.58;;;;;;;28.42;62.56;98330.09;4483477;31;20179;-67
2023/07/19 08:28:03;;;;;;;10.48;3.62;;;;;;;28.20;63.10;98337.53;4483143;31;20153;-67
2023/07/19 08:30:32;;;;;;;6.60;3.70;;;;;;;28.09;64.22;98340.19;4481775;31;20488;-67
2023/07/19 08:33:05;;;;;;;7.78;3.87;;;;;;;28.48;62.46;98342.50;4482431;31;20476;-67
2023/07/19 08:35:34;;;;;;;10.05;3.50;;;;;;;28.60;61.75;98346.84;4481384;32;20508;-67
2023/07/19 08:38:02;;;;;;;9.00;3.45;;;;;;;28.77;60.56;98344.75;4481876;32;20453;-67
2023/07/19 08:40:37;;;;;;;5.53;3.28;;;;;;;29.05;60.34;98353.41;4482813;31;20146;-67
2023/07/19 08:43:06;;;;;;;5.45;3.67;;;;;;;29.10;58.52;98353.44;4482320;31;20092;-67
2023/07/19 08:45:36;;;;;;;7.87;3.92;;;;;;;29.46;57.67;98358.84;4481985;31;20522;-67
2023/07/19 08:48:04;;;;;;;9.55;3.72;;;;;;;29.62;56.35;98366.94;4481236;31;20131;-68
2023/07/19 08:50:33;;;;;;;10.07;3.83;;;;;;;29.78;56.68;98365.84;4482755;32;20150;-67
2023/07/19 08:53:02;;;;;;;6.53;3.47;;;;;;;29.62;56.53;98365.03;4482746;31;20119;-67
2023/07/19 08:55:31;;;;;;;11.18;3.53;;;;;;;29.78;56.34;98370.41;4482045;31;20096;-67
2023/07/19 08:57:59;;;;;;;8.93;3.53;;;;;;;30.02;54.77;98373.34;4482401;31;20127;-67
2023/07/19 09:00:31;;;;;;;8.55;3.67;;;;;;;30.30;54.54;98376.53;4481277;31;20096;-67
2023/07/19 09:02:59;;;;;;;8.13;3.75;;;;;;;30.62;54.12;98373.41;4481402;31;20453;-67
2023/07/19 09:05:30;;;;;;;9.25;3.62;;;;;;;30.97;51.56;98372.38;4481352;31;20112;-68
2023/07/19 09:08:00;;;;;;;7.60;3.95;;;;;;;30.70;51.21;98380.13;4481454;31;20097;-68
2023/07/19 09:10:29;;;;;;;6.32;3.92;;;;;;;30.96;50.58;98372.66;4482300;31;20092;-67
2023/07/19 09:12:58;;;;;;;7.78;4.05;;;;;;;31.14;49.22;98357.69;4482492;31;20100;-67
2023/07/19 09:15:27;;;;;;;6.28;3.70;;;;;;;31.00;49.63;98362.13;4468541;32;20126;-68
2023/07/19 09:17:55;;;;;;;11.10;3.42;;;;;;;30.53;51.14;98359.69;4479930;32;20099;-67
2023/07/19 09:20:26;;;;;;;6.07;3.75;;;;;;;30.65;51.67;98367.47;4473975;32;20115;-67
2023/07/19 09:22:56;;;;;;;7.37;3.47;;;;;;;30.99;51.06;98372.13;4478528;31;20080;-67
2023/07/19 09:25:23;;;;;;;7.55;4.10;;;;;;;31.25;50.47;98364.66;4479411;32;20091;-67
2023/07/19 09:27:52;;;;;;;14.93;4.07;;;;;;;31.52;48.73;98373.34;4478475;32;20524;-67
2023/07/19 09:30:20;;;;;;;8.80;3.70;;;;;;;31.04;49.42;98363.19;4481545;32;20096;-67
2023/07/19 09:33:00;;;;;;;9.43;4.25;;;;;;;31.08;48.66;98369.66;4481157;31;20543;-67
2023/07/19 09:35:28;;;;;;;8.25;4.45;;;;;;;31.54;47.76;98357.63;4482141;31;20095;-67
2023/07/19 09:37:56;;;;;;;12.57;4.15;;;;;;;30.98;48.84;98357.00;4480688;31;20165;-67
2023/07/19 09:40:23;;;;;;;7.87;3.72;;;;;;;31.10;47.50;98360.16;4481454;31;20108;-67
2023/07/19 09:42:51;;;;;;;9.13;4.35;;;;;;;31.18;47.81;98364.16;4483433;31;20253;-67
2023/07/19 09:45:19;;;;;;;9.00;3.72;;;;;;;31.20;48.91;98367.38;4481073;31;20857;-67
2023/07/19 09:47:48;;;;;;;12.93;4.20;;;;;;;31.30;48.85;98361.91;4480960;31;20088;-67
2023/07/19 09:50:16;;;;;;;10.98;3.72;;;;;;;31.27;49.13;98367.88;4482439;31;20105;-67
2023/07/19 09:52:45;;;;;;;8.25;4.75;;;;;;;31.44;48.13;98366.66;4482121;32;20096;-67
2023/07/19 09:55:14;;;;;;;11.00;4.50;;;;;;;31.43;48.12;98368.56;4480520;32;20084;-68
2023/07/19 09:57:47;;;;;;;8.35;3.80;;;;;;;31.58;48.74;98362.22;4478915;31;20151;-68
2023/07/19 10:00:15;;;;;;;6.28;3.83;;;;;;;32.10;47.14;98350.84;4478966;31;20092;-68
2023/07/19 10:02:43;;;;;;;7.18;3.95;;;;;;;32.16;45.49;98350.53;4479767;32;20100;-67
2023/07/19 10:05:10;;;;;;;10.43;4.12;;;;;;;32.31;45.63;98346.00;4479972;31;20123;-67
2023/07/19 10:07:39;;;;;;;9.30;3.67;;;;;;;32.22;46.18;98345.88;4479808;32;20209;-68
2023/07/19 10:10:20;;;;;;;7.35;4.22;;;;;;;32.06;45.19;98341.69;4479717;31;20447;-68
2023/07/19 10:12:48;;;;;;;8.23;4.32;;;;;;;32.08;45.71;98336.78;4480907;31;20119;-67
2023/07/19 10:15:17;;;;;;;6.35;3.83;;;;;;;32.08;45.12;98328.66;4482354;31;20159;-67
2023/07/19 10:17:58;;;;;;;10.05;4.50;;;;;;;31.96;44.81;98335.31;4484339;31;20159;-68
2023/07/19 10:20:36;;;;;;;5.57;3.72;;;;;;;31.76;45.21;98330.09;4484324;31;20156;-68
2023/07/19 10:23:05;;;;;;;9.93;4.30;;;;;;;31.90;44.63;98331.03;4492858;31;20118;-67
2023/07/19 10:25:49;;;;;;;5.33;3.93;;;;;;;31.85;45.04;98317.53;4487032;31;20099;-68
2023/07/19 10:28:29;;;;;;;11.70;3.90;;;;;;;31.77;44.34;98318.19;4500489;31;20781;-67
2023/07/19 10:30:59;;;;;;;10.38;3.80;;;;;;;31.79;45.08;98311.34;4489085;31;20092;-66
2023/07/19 10:33:45;;;;;;;6.47;3.58;;;;;;;31.75;44.97;98313.06;4490225;31;20114;-68
2023/07/19 10:36:13;;;;;;;12.90;4.35;;;;;;;31.61;43.95;98314.81;4495819;31;20096;-67
2023/07/19 10:38:41;;;;;;;8.50;3.55;;;;;;;31.99;43.15;98295.97;4493601;31;20225;-66
2023/07/19 10:41:12;;;;;;;9.80;3.70;;;;;;;32.17;43.50;98286.28;4485445;31;20104;-68
2023/07/19 10:43:41;;;;;;;7.80;3.37;;;;;;;32.47;42.80;98284.25;4483834;31;20122;-69
2023/07/19 10:46:12;;;;;;;10.93;3.90;;;;;;;32.64;42.21;98279.09;4484095;31;20077;-68
2023/07/19 10:48:41;;;;;;;9.50;3.50;;;;;;;33.18;40.45;98267.97;4483859;31;20489;-68
2023/07/19 10:51:11;;;;;;;7.72;3.67;;;;;;;33.66;39.10;98269.56;4485924;31;20097;-68
2023/07/19 10:53:46;;;;;;;5.75;3.08;;;;;;;33.17;38.91;98269.06;4485566;31;20163;-68
2023/07/19 10:56:18;;;;;;;6.90;3.05;;;;;;;32.57;38.73;98281.41;4492310;31;20115;-67
2023/07/19 10:58:47;;;;;;;10.40;3.78;;;;;;;31.98;37.07;98284.31;4484656;31;20089;-66
2023/07/19 11:01:18;;;;;;;7.50;3.37;;;;;;;31.77;40.80;98288.38;4482990;31;20093;-66
2023/07/19 11:03:46;;;;;;;6.47;3.35;;;;;;;31.98;39.83;98289.75;4483137;32;20096;-65
2023/07/19 11:06:14;;;;;;;7.22;3.70;;;;;;;31.85;37.77;98309.41;4484220;31;20110;-66
2023/07/19 11:08:41;;;;;;;15.20;3.90;;;;;;;32.19;37.74;98305.78;4499112;31;20152;-66
2023/07/19 11:11:12;;;;;;;7.90;3.55;;;;;;;32.31;38.93;98308.06;4499799;31;20119;-66
2023/07/19 11:13:39;;;;;;;5.18;3.70;;;;;;;32.14;38.67;98295.00;4495325;31;20100;-66
2023/07/19 11:16:06;;;;;;;6.57;3.65;;;;;;;31.92;38.74;98284.69;4483921;31;20084;-64
2023/07/19 11:18:37;;;;;;;6.45;3.28;;;;;;;32.11;37.73;98287.44;4483741;31;20076;-65
2023/07/19 11:21:06;;;;;;;8.60;2.90;;;;;;;32.45;37.55;98283.75;4492072;31;20139;-66
2023/07/19 11:23:41;;;;;;;4.87;3.05;;;;;;;32.45;33.02;98287.25;4499527;31;20147;-66
2023/07/19 11:26:14;;;;;;;5.65;3.20;;;;;;;32.25;35.53;98291.06;4490229;31;20100;-66
2023/07/19 11:28:46;;;;;;;7.85;3.33;;;;;;;32.14;36.35;98284.16;4486027;31;20085;-66
2023/07/19 11:31:46;;;;;;;5.75;3.55;;;;;;;32.18;36.39;98280.56;4489450;31;20143;-66
2023/07/19 11:34:14;;;;;;;6.93;3.35;;;;;;;32.59;36.31;98281.91;4422568;32;20113;-65
2023/07/19 11:36:45;;;;;;;5.05;3.03;;;;;;;32.65;34.26;98279.94;4421654;32;20424;-66
2023/07/19 11:39:17;;;;;;;6.85;3.67;;;;;;;32.87;34.34;98276.63;4420302;32;20147;-66